createdAt,value
2018-08-30T00:02:12.294Z,22.53
2018-08-30T00:04:39.448Z,22.47
2018-08-30T00:07:06.607Z,26.70
2018-08-30T00:09:33.729Z,27.83
2018-08-30T00:12:01.766Z,23.93
2018-08-30T00:14:29.042Z,26.03
2018-08-30T00:16:56.226Z,29.63
2018-08-30T00:19:23.357Z,25.47
2018-08-30T00:21:50.491Z,27.30
2018-08-30T00:24:17.693Z,27.07
2018-08-30T00:26:44.839Z,29.63
2018-08-30T00:29:11.982Z,29.47
2018-08-30T00:31:39.125Z,30.40
2018-08-30T00:34:06.294Z,33.50
2018-08-30T00:36:33.404Z,36.40
2018-08-30T00:39:01.021Z,30.33
2018-08-30T00:41:28.268Z,30.50
2018-08-30T00:43:55.308Z,31.00
2018-08-30T00:46:22.442Z,30.73
2018-08-30T00:48:49.560Z,26.13
2018-08-30T00:51:16.725Z,18.30
2018-08-30T00:53:43.945Z,15.87
2018-08-30T00:56:11.161Z,13.87
2018-08-30T00:58:38.293Z,12.97
2018-08-30T01:01:05.421Z,14.30
2018-08-30T01:03:32.538Z,9.77
2018-08-30T01:05:59.655Z,11.17
2018-08-30T01:08:26.829Z,8.67
2018-08-30T01:10:53.993Z,8.87
2018-08-30T01:13:21.128Z,7.93
2018-08-30T01:15:48.272Z,8.80
2018-08-30T01:18:15.412Z,8.33
2018-08-30T01:20:42.579Z,9.83
2018-08-30T01:23:09.815Z,9.07
2018-08-30T01:25:37.246Z,8.63
2018-08-30T01:28:04.424Z,7.63
2018-08-30T01:30:31.603Z,7.53
2018-08-30T01:32:58.737Z,7.50
2018-08-30T01:35:25.851Z,9.37
2018-08-30T01:37:53.074Z,9.73
2018-08-30T01:40:20.370Z,8.07
2018-08-30T01:42:47.523Z,7.60
2018-08-30T01:45:14.664Z,7.13
2018-08-30T01:47:41.859Z,6.80
2018-08-30T01:50:09.019Z,11.07
2018-08-30T01:52:36.145Z,4.77
2018-08-30T01:55:03.289Z,5.50
2018-08-30T01:57:30.414Z,4.20
2018-08-30T01:59:57.582Z,6.23
2018-08-30T02:02:24.707Z,5.50
2018-08-30T02:04:51.833Z,9.43
2018-08-30T02:07:18.994Z,5.83
2018-08-30T02:09:46.211Z,4.90
2018-08-30T02:12:13.369Z,3.73
2018-08-30T02:14:40.513Z,3.93
2018-08-30T02:17:07.622Z,7.03
2018-08-30T02:19:34.755Z,4.23
2018-08-30T02:22:01.882Z,9.00
2018-08-30T02:24:29.007Z,5.57
2018-08-30T02:26:56.126Z,4.33
2018-08-30T02:29:23.254Z,4.03
2018-08-30T02:31:50.391Z,4.63
2018-08-30T02:34:17.523Z,4.57
2018-08-30T02:36:44.700Z,4.00
2018-08-30T02:39:11.887Z,5.10
2018-08-30T02:41:39.136Z,2.80
2018-08-30T02:44:06.296Z,2.77
2018-08-30T02:46:33.687Z,5.80
2018-08-30T02:49:00.876Z,2.90
2018-08-30T02:51:27.951Z,3.03
2018-08-30T02:53:55.086Z,2.80
2018-08-30T02:56:22.209Z,2.90
2018-08-30T02:58:49.642Z,2.30
2018-08-30T03:01:16.999Z,3.30
2018-08-30T03:03:44.171Z,3.33
2018-08-30T03:06:11.459Z,2.80
2018-08-30T03:08:38.582Z,2.73
2018-08-30T03:11:06.036Z,7.20
2018-08-30T03:13:33.166Z,3.47
2018-08-30T03:16:00.298Z,6.73
2018-08-30T03:18:27.450Z,4.23
2018-08-30T03:20:54.632Z,2.23
2018-08-30T03:23:21.778Z,3.17
2018-08-30T03:25:49.669Z,1.87
2018-08-30T03:28:16.850Z,4.03
2018-08-30T03:30:44.059Z,2.83
2018-08-30T03:33:11.398Z,3.03
2018-08-30T03:35:38.531Z,3.13
2018-08-30T03:38:05.677Z,5.27
2018-08-30T03:40:32.829Z,5.80
2018-08-30T03:43:00.034Z,4.13
2018-08-30T03:45:27.162Z,4.93
2018-08-30T03:47:54.292Z,6.37
2018-08-30T03:50:21.451Z,6.57
2018-08-30T03:52:48.593Z,7.10
2018-08-30T03:55:15.862Z,6.57
2018-08-30T03:57:43.039Z,8.03
2018-08-30T04:00:10.219Z,6.43
2018-08-30T04:02:37.334Z,7.17
2018-08-30T04:05:04.741Z,7.53
2018-08-30T04:07:31.858Z,7.50
2018-08-30T04:09:59.021Z,9.13
2018-08-30T04:12:26.250Z,15.47
2018-08-30T04:14:53.352Z,12.43
2018-08-30T04:17:20.493Z,10.50
2018-08-30T04:19:47.642Z,11.77
2018-08-30T04:22:15.046Z,10.83
2018-08-30T04:24:42.242Z,11.47
2018-08-30T04:27:09.395Z,11.20
2018-08-30T04:29:36.498Z,11.80
2018-08-30T04:32:03.713Z,10.20
2018-08-30T04:34:30.818Z,11.53
2018-08-30T04:36:57.919Z,13.73
2018-08-30T04:39:25.058Z,12.00
2018-08-30T04:41:52.184Z,12.47
2018-08-30T04:44:19.354Z,12.07
2018-08-30T04:46:46.550Z,11.80
2018-08-30T04:49:13.700Z,12.83
2018-08-30T04:51:40.849Z,11.23
2018-08-30T04:54:07.978Z,10.30
2018-08-30T04:56:35.096Z,13.50
2018-08-30T04:59:02.254Z,14.10
2018-08-30T05:01:29.395Z,14.03
2018-08-30T05:03:56.719Z,11.87
2018-08-30T05:06:23.856Z,13.53
2018-08-30T05:08:51.075Z,19.23
2018-08-30T05:11:18.278Z,13.13
2018-08-30T05:13:45.473Z,12.27
2018-08-30T05:16:12.689Z,11.73
2018-08-30T05:18:39.891Z,10.63
2018-08-30T05:21:07.041Z,11.47
2018-08-30T05:23:34.163Z,11.73
2018-08-30T05:26:01.288Z,12.67
2018-08-30T05:28:28.542Z,12.00
2018-08-30T05:30:55.779Z,13.37
2018-08-30T05:33:22.918Z,14.30
2018-08-30T05:35:50.197Z,16.23
2018-08-30T05:38:17.283Z,18.03
2018-08-30T05:40:44.553Z,15.67
2018-08-30T05:43:11.741Z,16.23
2018-08-30T05:45:39.206Z,16.77
2018-08-30T05:48:06.342Z,15.60
2018-08-30T05:50:33.474Z,17.60
2018-08-30T05:53:00.611Z,18.27
2018-08-30T05:55:27.750Z,16.43
2018-08-30T05:57:54.908Z,16.13
2018-08-30T06:00:22.130Z,17.67
2018-08-30T06:02:49.450Z,17.43
2018-08-30T06:05:16.663Z,17.83
2018-08-30T06:07:44.420Z,19.27
2018-08-30T06:10:11.725Z,15.30
2018-08-30T06:12:38.902Z,17.83
2018-08-30T06:15:06.171Z,17.50
2018-08-30T06:17:33.366Z,17.70
2018-08-30T06:20:00.578Z,19.63
2018-08-30T06:22:27.761Z,20.70
2018-08-30T06:24:55.053Z,19.73
2018-08-30T06:27:22.303Z,18.67
2018-08-30T06:29:49.595Z,22.87
2018-08-30T06:32:16.961Z,18.03
2018-08-30T06:34:44.377Z,23.03
2018-08-30T06:37:11.732Z,24.10
2018-08-30T06:39:38.902Z,21.97
2018-08-30T06:42:06.064Z,21.67
2018-08-30T06:44:33.226Z,25.03
2018-08-30T06:47:00.429Z,22.13
2018-08-30T06:49:27.558Z,20.67
2018-08-30T06:51:54.750Z,24.83
2018-08-30T06:54:21.933Z,28.43
2018-08-30T06:56:49.253Z,23.77
2018-08-30T06:59:16.636Z,25.43
2018-08-30T07:01:44.001Z,23.43
2018-08-30T07:04:11.316Z,22.13
2018-08-30T07:06:38.424Z,25.00
2018-08-30T07:09:07.563Z,24.30
2018-08-30T07:11:34.746Z,24.07
2018-08-30T07:14:02.188Z,23.50
2018-08-30T07:16:29.378Z,26.63
2018-08-30T07:18:56.595Z,24.40
2018-08-30T07:21:23.879Z,25.03
2018-08-30T07:23:51.359Z,29.80
2018-08-30T07:26:18.596Z,23.13
2018-08-30T07:28:45.899Z,21.47
2018-08-30T07:31:13.213Z,24.43
2018-08-30T07:33:40.406Z,22.83
2018-08-30T07:36:07.604Z,22.93
2018-08-30T07:38:34.833Z,24.67
2018-08-30T07:41:02.166Z,23.63
2018-08-30T07:43:29.340Z,21.30
2018-08-30T07:45:56.475Z,22.47
2018-08-30T07:48:23.655Z,20.73
2018-08-30T07:50:50.943Z,25.40
2018-08-30T07:53:18.194Z,22.73
2018-08-30T07:55:45.535Z,22.07
2018-08-30T07:58:12.948Z,21.53
2018-08-30T08:00:40.176Z,22.57
2018-08-30T08:03:07.367Z,19.93
2018-08-30T08:05:34.627Z,23.27
2018-08-30T08:08:02.106Z,24.67
2018-08-30T08:10:29.330Z,22.20
2018-08-30T08:12:56.471Z,18.83
2018-08-30T08:15:23.685Z,22.60
2018-08-30T08:17:50.903Z,19.17
2018-08-30T08:20:18.230Z,18.62
2018-08-30T08:22:45.564Z,16.52
2018-08-30T08:25:13.037Z,19.20
2018-08-30T08:27:40.192Z,21.55
2018-08-30T08:30:07.357Z,17.60
2018-08-30T08:32:34.629Z,18.07
2018-08-30T08:35:01.929Z,18.35
2018-08-30T08:37:29.134Z,20.45
2018-08-30T08:39:56.424Z,16.67
2018-08-30T08:42:23.802Z,19.87
2018-08-30T08:44:51.094Z,16.35
2018-08-30T08:47:18.370Z,18.12
2018-08-30T08:49:45.723Z,15.68
2018-08-30T08:52:13.105Z,16.50
2018-08-30T08:54:40.247Z,16.67
2018-08-30T08:57:07.451Z,18.85
2018-08-30T08:59:34.664Z,18.15
2018-08-30T09:02:02.050Z,21.65
2018-08-30T09:04:29.239Z,20.12
2018-08-30T09:06:56.703Z,16.17
2018-08-30T09:09:24.004Z,16.90
2018-08-30T09:11:51.223Z,17.70
2018-08-30T09:14:18.577Z,17.45
2018-08-30T09:16:45.915Z,15.00
2018-08-30T09:19:13.242Z,17.05
2018-08-30T09:21:40.475Z,15.98
2018-08-30T09:24:07.771Z,16.25
2018-08-30T09:26:35.239Z,18.98
2018-08-30T09:29:02.394Z,17.17
2018-08-30T09:31:29.602Z,17.43
2018-08-30T09:33:56.932Z,19.03
2018-08-30T09:36:24.085Z,16.00
2018-08-30T09:38:51.348Z,17.30
2018-08-30T09:41:18.618Z,20.13
2018-08-30T09:43:46.097Z,18.15
2018-08-30T09:46:13.701Z,17.32
2018-08-30T09:48:47.779Z,16.83
2018-08-30T09:51:15.039Z,24.90
2018-08-30T09:53:42.421Z,16.60
2018-08-30T09:56:09.546Z,15.87
2018-08-30T09:58:36.747Z,18.67
2018-08-30T10:01:09.861Z,14.67
2018-08-30T10:03:37.129Z,13.87
2018-08-30T10:06:04.411Z,14.23
2018-08-30T10:08:31.576Z,12.37
2018-08-30T10:10:58.777Z,11.80
2018-08-30T10:13:26.020Z,17.30
2018-08-30T10:15:53.285Z,14.13
2018-08-30T10:18:20.459Z,13.80
2018-08-30T10:20:47.753Z,18.73
2018-08-30T10:23:15.049Z,17.03
2018-08-30T10:25:42.563Z,15.23
2018-08-30T10:28:09.754Z,14.03
2018-08-30T10:30:37.025Z,13.70
2018-08-30T10:33:04.632Z,13.03
2018-08-30T10:35:31.855Z,22.63
2018-08-30T10:37:59.055Z,16.37
2018-08-30T10:40:26.307Z,13.83
2018-08-30T10:42:53.648Z,14.40
2018-08-30T10:45:20.995Z,14.30
2018-08-30T10:47:48.343Z,18.73
2018-08-30T10:50:15.679Z,14.57
2018-08-30T10:52:43.077Z,16.57
2018-08-30T10:55:10.433Z,14.57
2018-08-30T10:57:37.642Z,19.33
2018-08-30T11:00:04.958Z,11.15
2018-08-30T11:02:32.219Z,16.07
2018-08-30T11:04:59.471Z,14.67
2018-08-30T11:07:26.744Z,16.73
2018-08-30T11:09:53.971Z,14.53
2018-08-30T11:12:21.366Z,14.60
2018-08-30T11:14:48.721Z,13.58
2018-08-30T11:17:16.109Z,16.80
2018-08-30T11:19:43.567Z,17.13
2018-08-30T11:22:10.910Z,16.70
2018-08-30T11:24:38.195Z,14.40
2018-08-30T11:27:05.544Z,17.37
2018-08-30T11:29:32.726Z,14.70
2018-08-30T11:31:59.930Z,13.03
2018-08-30T11:34:27.127Z,14.57
2018-08-30T11:36:54.494Z,10.00
2018-08-30T11:39:21.704Z,11.13
2018-08-30T11:41:49.207Z,11.67
2018-08-30T11:44:16.864Z,9.43
2018-08-30T11:46:44.192Z,11.53
2018-08-30T11:49:11.431Z,9.77
2018-08-30T11:51:38.748Z,8.80
2018-08-30T11:54:06.013Z,8.90
2018-08-30T11:56:33.314Z,7.80
2018-08-30T11:59:00.666Z,11.00
2018-08-30T12:01:27.810Z,9.60
2018-08-30T12:03:56.236Z,10.82
2018-08-30T12:06:23.846Z,10.87
2018-08-30T12:08:51.102Z,8.20
2018-08-30T12:11:18.480Z,8.15
2018-08-30T12:13:45.716Z,8.10
2018-08-30T12:16:13.209Z,10.47
2018-08-30T12:18:40.665Z,8.45
2018-08-30T12:21:07.944Z,8.37
2018-08-30T12:23:35.168Z,7.90
2018-08-30T12:26:02.319Z,8.93
2018-08-30T12:28:29.909Z,6.37
2018-08-30T12:30:57.290Z,9.10
2018-08-30T12:33:24.535Z,13.27
2018-08-30T12:35:51.909Z,7.13
2018-08-30T12:38:18.981Z,13.97
2018-08-30T12:40:46.429Z,5.73
2018-08-30T12:43:13.870Z,5.93
2018-08-30T12:45:40.996Z,6.23
2018-08-30T12:48:08.228Z,8.63
2018-08-30T12:50:35.693Z,8.30
2018-08-30T12:53:02.926Z,8.40
2018-08-30T12:55:30.146Z,9.00
2018-08-30T12:57:57.433Z,7.07
2018-08-30T13:00:25.032Z,8.60
2018-08-30T13:02:52.399Z,10.53
2018-08-30T13:05:19.612Z,9.60
2018-08-30T13:07:46.975Z,8.80
2018-08-30T13:10:14.393Z,6.90
2018-08-30T13:12:41.771Z,7.03
2018-08-30T13:15:09.270Z,8.23
2018-08-30T13:17:36.234Z,7.63
2018-08-30T13:20:03.580Z,8.70
2018-08-30T13:22:30.913Z,6.67
2018-08-30T13:24:58.084Z,10.27
2018-08-30T13:27:25.046Z,7.03
2018-08-30T13:29:52.442Z,11.00
2018-08-30T13:32:19.879Z,9.33
2018-08-30T13:34:47.308Z,7.83
2018-08-30T13:37:14.444Z,7.07
2018-08-30T13:39:41.775Z,8.23
2018-08-30T13:42:09.362Z,9.13
2018-08-30T13:44:36.358Z,8.45
2018-08-30T13:47:03.856Z,6.80
2018-08-30T13:49:30.900Z,9.60
2018-08-30T13:51:58.513Z,5.80
2018-08-30T13:54:25.703Z,8.43
2018-08-30T13:56:53.083Z,7.05
2018-08-30T13:59:20.375Z,10.15
2018-08-30T14:01:47.786Z,6.33
2018-08-30T14:04:14.942Z,8.43
2018-08-30T14:06:42.459Z,7.67
2018-08-30T14:09:09.564Z,7.03
2018-08-30T14:11:36.821Z,11.20
2018-08-30T14:14:04.052Z,6.37
2018-08-30T14:16:30.914Z,8.00
2018-08-30T14:18:58.056Z,8.60
2018-08-30T14:21:25.215Z,9.63
2018-08-30T14:23:52.470Z,14.00
2018-08-30T14:26:19.663Z,8.17
2018-08-30T14:28:47.108Z,3.77
2018-08-30T14:31:14.573Z,6.87
2018-08-30T14:33:41.807Z,6.77
2018-08-30T14:36:09.071Z,4.00
2018-08-30T14:38:36.220Z,6.13
2018-08-30T14:41:03.779Z,7.63
2018-08-30T14:43:30.737Z,7.73
2018-08-30T14:45:57.993Z,3.67
2018-08-30T14:48:25.219Z,7.90
2018-08-30T14:50:52.628Z,8.77
2018-08-30T14:53:19.999Z,8.13
2018-08-30T14:55:47.209Z,3.73
2018-08-30T14:58:14.463Z,4.97
2018-08-30T15:00:41.777Z,3.30
2018-08-30T15:03:09.035Z,4.30
2018-08-30T15:05:36.405Z,7.97
2018-08-30T15:08:03.606Z,5.03
2018-08-30T15:10:30.855Z,5.03
2018-08-30T15:12:58.107Z,6.53
2018-08-30T15:15:25.336Z,4.87
2018-08-30T15:17:52.590Z,6.10
2018-08-30T15:20:19.956Z,3.00
2018-08-30T15:22:47.336Z,6.97
2018-08-30T15:25:14.856Z,5.70
2018-08-30T15:27:42.194Z,5.13
2018-08-30T15:30:09.486Z,4.80
2018-08-30T15:32:36.710Z,4.83
2018-08-30T15:35:04.142Z,5.43
2018-08-30T15:37:31.278Z,5.23
2018-08-30T15:39:58.423Z,3.57
2018-08-30T15:42:25.672Z,3.87
2018-08-30T15:44:52.856Z,5.93
2018-08-30T15:47:20.279Z,5.60
2018-08-30T15:49:47.588Z,6.07
2018-08-30T15:52:14.950Z,3.80
2018-08-30T15:54:42.338Z,4.80
2018-08-30T15:57:09.608Z,4.20
2018-08-30T15:59:36.805Z,7.20
2018-08-30T16:02:04.187Z,8.97
2018-08-30T16:04:31.419Z,2.20
2018-08-30T16:06:58.592Z,2.60
2018-08-30T16:09:25.847Z,5.37
2018-08-30T16:11:53.078Z,5.30
2018-08-30T16:14:20.343Z,7.87
2018-08-30T16:16:47.606Z,3.73
2018-08-30T16:19:14.955Z,3.97
2018-08-30T16:21:42.254Z,5.20
2018-08-30T16:24:09.581Z,3.43
2018-08-30T16:26:36.823Z,3.10
2018-08-30T16:29:04.114Z,4.40
2018-08-30T16:31:31.351Z,9.30
2018-08-30T16:33:58.505Z,8.20
2018-08-30T16:36:25.805Z,4.50
2018-08-30T16:38:53.012Z,4.67
2018-08-30T16:41:20.295Z,2.90
2018-08-30T16:43:47.798Z,4.03
2018-08-30T16:46:15.133Z,3.07
2018-08-30T16:48:42.727Z,4.20
2018-08-30T16:51:09.972Z,8.90
2018-08-30T16:53:37.221Z,9.27
2018-08-30T16:56:04.593Z,5.43
2018-08-30T16:58:31.781Z,5.60
2018-08-30T17:00:59.401Z,6.20
2018-08-30T17:03:26.624Z,8.00
2018-08-30T17:05:53.942Z,8.17
2018-08-30T17:08:21.295Z,4.60
2018-08-30T17:10:48.593Z,5.03
2018-08-30T17:13:15.955Z,6.13
2018-08-30T17:15:43.579Z,4.57
2018-08-30T17:18:10.820Z,3.67
2018-08-30T17:20:39.932Z,8.67
2018-08-30T17:23:07.370Z,8.53
2018-08-30T17:25:34.617Z,4.97
2018-08-30T17:28:01.835Z,3.50
2018-08-30T17:30:29.135Z,4.27
2018-08-30T17:32:56.340Z,5.20
2018-08-30T17:35:24.218Z,7.00
2018-08-30T17:37:51.307Z,3.80
2018-08-30T17:40:18.747Z,8.03
2018-08-30T17:42:46.640Z,5.33
2018-08-30T17:45:14.135Z,4.53
2018-08-30T17:47:41.334Z,11.10
2018-08-30T17:50:08.717Z,5.00
2018-08-30T17:52:35.896Z,3.20
2018-08-30T17:55:03.072Z,4.37
2018-08-30T17:57:30.352Z,5.27
2018-08-30T17:59:57.748Z,6.43
2018-08-30T18:02:25.049Z,6.67
2018-08-30T18:04:52.265Z,5.40
2018-08-30T18:07:19.609Z,3.70
2018-08-30T18:09:46.944Z,5.73
2018-08-30T18:12:14.376Z,4.43
2018-08-30T18:14:41.575Z,3.87
2018-08-30T18:17:08.719Z,5.37
2018-08-30T18:19:35.858Z,5.27
2018-08-30T18:22:03.027Z,8.10
2018-08-30T18:24:30.146Z,7.33
2018-08-30T18:26:57.754Z,3.37
2018-08-30T18:29:24.915Z,5.57
2018-08-30T18:31:52.059Z,4.90
2018-08-30T18:34:19.499Z,7.53
2018-08-30T18:36:46.697Z,4.20
2018-08-30T18:39:13.824Z,5.60
2018-08-30T18:41:40.943Z,7.47
2018-08-30T18:44:08.091Z,4.80
2018-08-30T18:46:35.426Z,5.77
2018-08-30T18:49:02.550Z,8.90
2018-08-30T18:51:29.829Z,6.93
2018-08-30T18:53:56.988Z,5.87
2018-08-30T18:56:24.114Z,8.87
2018-08-30T18:58:51.269Z,3.43
2018-08-30T19:01:18.383Z,7.83
2018-08-30T19:03:45.636Z,8.00
2018-08-30T19:06:13.105Z,6.23
2018-08-30T19:08:40.225Z,4.37
2018-08-30T19:11:07.366Z,8.60
2018-08-30T19:13:34.513Z,7.47
2018-08-30T19:16:07.349Z,6.77
2018-08-30T19:18:40.200Z,4.00
2018-08-30T19:21:07.364Z,6.10
2018-08-30T19:23:34.719Z,9.43
2018-08-30T19:26:01.889Z,4.47
2018-08-30T19:28:29.050Z,2.97
2018-08-30T19:30:56.206Z,7.37
2018-08-30T19:33:23.331Z,7.33
2018-08-30T19:35:56.180Z,6.50
2018-08-30T19:38:23.326Z,4.23
2018-08-30T19:40:56.078Z,4.53
2018-08-30T19:43:23.194Z,7.97
2018-08-30T19:45:50.322Z,4.93
2018-08-30T19:48:17.566Z,5.97
2018-08-30T19:50:44.736Z,6.73
2018-08-30T19:53:12.004Z,5.07
2018-08-30T19:55:39.133Z,5.43
2018-08-30T19:58:06.267Z,7.13
2018-08-30T20:00:33.407Z,7.13
2018-08-30T20:03:00.584Z,5.43
2018-08-30T20:05:27.760Z,7.87
2018-08-30T20:07:55.138Z,5.07
2018-08-30T20:10:22.262Z,9.03
2018-08-30T20:12:49.390Z,6.67
2018-08-30T20:15:16.549Z,10.80
2018-08-30T20:17:43.682Z,15.03
2018-08-30T20:20:10.890Z,2.80
2018-08-30T20:22:38.108Z,6.43
2018-08-30T20:25:05.552Z,8.83
2018-08-30T20:27:32.686Z,3.50
2018-08-30T20:29:59.789Z,9.13
2018-08-30T20:32:26.900Z,3.47
2018-08-30T20:34:54.027Z,6.60
2018-08-30T20:37:21.167Z,4.43
2018-08-30T20:39:48.300Z,7.50
2018-08-30T20:42:15.477Z,5.23
2018-08-30T20:44:42.640Z,5.03
2018-08-30T20:47:09.750Z,8.73
2018-08-30T20:49:36.983Z,4.47
2018-08-30T20:52:04.223Z,4.60
2018-08-30T20:54:31.334Z,4.30
2018-08-30T20:56:58.487Z,4.37
2018-08-30T20:59:25.650Z,9.93
2018-08-30T21:01:52.782Z,8.40
2018-08-30T21:04:19.886Z,5.83
2018-08-30T21:06:47.086Z,5.03
2018-08-30T21:09:14.245Z,6.33
2018-08-30T21:11:41.362Z,4.70
2018-08-30T21:14:08.481Z,3.77
2018-08-30T21:16:35.614Z,4.63
2018-08-30T21:19:02.789Z,7.33
2018-08-30T21:21:30.231Z,7.50
2018-08-30T21:23:57.375Z,5.27
2018-08-30T21:26:24.481Z,5.67
2018-08-30T21:28:51.605Z,4.53
2018-08-30T21:31:18.742Z,3.40
2018-08-30T21:33:46.030Z,4.47
2018-08-30T21:36:13.171Z,10.77
2018-08-30T21:38:40.547Z,5.40
2018-08-30T21:41:07.650Z,4.77
2018-08-30T21:43:34.777Z,6.10
2018-08-30T21:46:01.955Z,7.70
2018-08-30T21:48:29.083Z,5.43
2018-08-30T21:50:56.203Z,6.53
2018-08-30T21:53:23.306Z,7.57
2018-08-30T21:55:50.452Z,10.17
2018-08-30T21:58:17.598Z,22.40
2018-08-30T22:00:44.925Z,3.53
2018-08-30T22:03:12.168Z,8.53
2018-08-30T22:05:39.340Z,2.30
2018-08-30T22:08:06.458Z,4.00
2018-08-30T22:10:33.581Z,6.70
2018-08-30T22:13:00.695Z,7.73
2018-08-30T22:15:27.802Z,8.13
2018-08-30T22:17:54.911Z,4.37
2018-08-30T22:20:22.066Z,7.23
2018-08-30T22:22:49.218Z,4.17
2018-08-30T22:25:16.371Z,4.27
2018-08-30T22:27:43.502Z,4.70
2018-08-30T22:30:10.897Z,7.43
2018-08-30T22:32:38.263Z,3.80
2018-08-30T22:35:05.902Z,7.00
2018-08-30T22:37:33.023Z,2.03
2018-08-30T22:40:00.211Z,4.23
2018-08-30T22:42:27.395Z,4.93
2018-08-30T22:44:54.474Z,4.63
2018-08-30T22:47:21.578Z,9.80
2018-08-30T22:49:48.764Z,3.70
2018-08-30T22:52:16.013Z,4.80
2018-08-30T22:54:43.140Z,5.33
2018-08-30T22:57:10.279Z,6.00
2018-08-30T22:59:37.465Z,7.73
2018-08-30T23:02:04.662Z,6.87
2018-08-30T23:04:31.771Z,7.93
2018-08-30T23:06:59.046Z,5.57
2018-08-30T23:09:26.157Z,5.40
2018-08-30T23:11:53.290Z,3.37
2018-08-30T23:14:20.419Z,6.03
2018-08-30T23:16:47.584Z,7.67
2018-08-30T23:19:14.744Z,5.97
2018-08-30T23:21:41.907Z,4.30
2018-08-30T23:24:09.019Z,3.60
2018-08-30T23:26:36.142Z,4.10
2018-08-30T23:29:03.278Z,5.33
2018-08-30T23:31:30.415Z,6.30
2018-08-30T23:33:57.520Z,6.83
2018-08-30T23:36:24.657Z,9.17
2018-08-30T23:38:51.786Z,9.03
2018-08-30T23:41:18.944Z,7.07
2018-08-30T23:43:46.175Z,4.57
2018-08-30T23:46:13.407Z,2.80
2018-08-30T23:48:40.525Z,7.07
2018-08-30T23:51:07.662Z,3.07
2018-08-30T23:53:34.786Z,4.93
2018-08-30T23:56:01.950Z,5.10
2018-08-30T23:58:40.771Z,7.67
